createdAt,value
2022-10-24T00:02:12.482Z,100.00
2022-10-24T00:04:42.658Z,100.00
2022-10-24T00:07:11.487Z,100.00
2022-10-24T00:09:40.347Z,100.00
2022-10-24T00:12:10.792Z,100.00
2022-10-24T00:14:39.960Z,100.00
2022-10-24T00:17:08.636Z,100.00
2022-10-24T00:19:37.373Z,99.94
2022-10-24T00:22:06.286Z,100.00
2022-10-24T00:24:34.891Z,99.71
2022-10-24T00:27:03.542Z,99.50
2022-10-24T00:29:33.667Z,99.83
2022-10-24T00:32:02.313Z,99.35
2022-10-24T00:34:31.017Z,98.76
2022-10-24T00:36:59.681Z,98.69
2022-10-24T00:39:28.288Z,98.76
2022-10-24T00:41:59.039Z,98.17
2022-10-24T00:44:31.083Z,98.70
2022-10-24T00:47:06.238Z,98.48
2022-10-24T00:49:46.735Z,98.65
2022-10-24T00:52:19.401Z,98.86
2022-10-24T00:54:49.295Z,99.18
2022-10-24T00:57:25.925Z,99.13
2022-10-24T01:00:01.597Z,98.60
2022-10-24T01:02:31.702Z,98.65
2022-10-24T01:05:01.080Z,98.85
2022-10-24T01:07:51.802Z,98.60
2022-10-24T01:10:39.790Z,98.25
2022-10-24T01:13:23.833Z,98.14
2022-10-24T01:16:04.726Z,98.44
2022-10-24T01:18:44.201Z,98.83
2022-10-24T01:21:30.040Z,99.10
2022-10-24T01:24:33.467Z,99.09
2022-10-24T01:27:41.144Z,99.48
2022-10-24T01:30:14.065Z,99.04
2022-10-24T01:32:55.232Z,99.21
2022-10-24T01:35:37.163Z,99.53
2022-10-24T01:38:17.903Z,99.31
2022-10-24T01:40:54.480Z,99.00
2022-10-24T01:43:29.730Z,98.91
2022-10-24T01:46:05.903Z,98.72
2022-10-24T01:48:41.740Z,98.92
2022-10-24T01:51:14.159Z,98.89
2022-10-24T01:53:45.356Z,98.94
2022-10-24T01:56:13.943Z,99.11
2022-10-24T01:58:42.708Z,99.00
2022-10-24T02:01:19.689Z,98.93
2022-10-24T02:03:54.358Z,98.82
2022-10-24T02:06:31.390Z,99.17
2022-10-24T02:09:08.241Z,99.22
2022-10-24T02:11:38.396Z,99.71
2022-10-24T02:14:15.263Z,99.53
2022-10-24T02:16:46.687Z,99.86
2022-10-24T02:19:16.851Z,99.86
2022-10-24T02:21:54.225Z,100.00
2022-10-24T02:24:30.515Z,100.00
2022-10-24T02:27:06.010Z,100.00
2022-10-24T02:29:44.075Z,100.00
2022-10-24T02:32:21.165Z,100.00
2022-10-24T02:34:51.028Z,100.00
2022-10-24T02:37:21.392Z,100.00
2022-10-24T02:39:52.502Z,100.00
2022-10-24T02:42:24.055Z,100.00
2022-10-24T02:44:53.795Z,100.00
2022-10-24T02:47:27.974Z,100.00
2022-10-24T02:49:57.303Z,100.00
2022-10-24T02:52:26.646Z,100.00
2022-10-24T02:54:55.282Z,100.00
2022-10-24T02:57:26.712Z,100.00
2022-10-24T02:59:55.355Z,100.00
2022-10-24T03:02:25.794Z,100.00
2022-10-24T03:04:54.679Z,100.00
2022-10-24T03:07:23.331Z,100.00
2022-10-24T03:09:51.978Z,100.00
2022-10-24T03:12:20.923Z,100.00
2022-10-24T03:14:49.834Z,100.00
2022-10-24T03:17:18.570Z,100.00
2022-10-24T03:19:48.634Z,100.00
2022-10-24T03:22:17.196Z,100.00
2022-10-24T03:24:55.255Z,100.00
2022-10-24T03:27:24.685Z,100.00
2022-10-24T03:29:53.270Z,100.00
2022-10-24T03:32:22.104Z,100.00
2022-10-24T03:34:52.161Z,100.00
2022-10-24T03:37:21.114Z,100.00
2022-10-24T03:39:51.167Z,100.00
2022-10-24T03:42:19.841Z,100.00
2022-10-24T03:44:48.632Z,100.00
2022-10-24T03:47:17.435Z,100.00
2022-10-24T03:49:46.112Z,100.00
2022-10-24T03:52:16.178Z,100.00
2022-10-24T03:54:45.112Z,100.00
2022-10-24T03:57:13.911Z,100.00
2022-10-24T03:59:42.624Z,100.00
2022-10-24T04:02:11.844Z,100.00
2022-10-24T04:04:40.484Z,100.00
2022-10-24T04:07:09.292Z,100.00
2022-10-24T04:09:39.642Z,100.00
2022-10-24T04:12:08.498Z,100.00
2022-10-24T04:14:37.123Z,100.00
2022-10-24T04:17:05.928Z,100.00
2022-10-24T04:19:35.041Z,100.00
2022-10-24T04:22:03.691Z,100.00
2022-10-24T04:24:32.716Z,100.00
2022-10-24T04:27:02.804Z,100.00
2022-10-24T04:29:31.723Z,100.00
2022-10-24T04:32:00.525Z,100.00
2022-10-24T04:34:29.201Z,100.00
2022-10-24T04:36:57.884Z,100.00
2022-10-24T04:39:26.505Z,100.00
2022-10-24T04:41:55.108Z,99.99
2022-10-24T04:44:25.180Z,99.78
2022-10-24T04:46:53.897Z,99.81
2022-10-24T04:49:22.467Z,99.69
2022-10-24T04:51:51.098Z,100.00
2022-10-24T04:54:19.813Z,99.65
2022-10-24T04:56:48.662Z,99.63
2022-10-24T04:59:17.420Z,99.66
2022-10-24T05:01:47.559Z,99.32
2022-10-24T05:04:16.377Z,99.52
2022-10-24T05:06:45.296Z,98.95
2022-10-24T05:09:14.211Z,98.88
2022-10-24T05:11:43.151Z,98.86
2022-10-24T05:14:11.991Z,98.66
2022-10-24T05:16:40.825Z,98.49
2022-10-24T05:19:10.824Z,98.45
2022-10-24T05:21:39.418Z,98.65
2022-10-24T05:24:08.691Z,98.75
2022-10-24T05:26:37.387Z,99.12
2022-10-24T05:31:39.560Z,99.68
2022-10-24T05:34:08.427Z,99.24
2022-10-24T05:36:38.574Z,99.94
2022-10-24T05:39:07.855Z,99.30
2022-10-24T05:41:37.316Z,98.93
2022-10-24T05:44:06.442Z,98.81
2022-10-24T05:46:35.088Z,98.82
2022-10-24T05:49:03.719Z,98.75
2022-10-24T05:51:32.446Z,98.51
2022-10-24T05:54:02.807Z,98.61
2022-10-24T05:56:32.120Z,98.40
2022-10-24T05:59:00.815Z,98.30
2022-10-24T06:01:29.516Z,98.46
2022-10-24T06:03:58.503Z,98.24
2022-10-24T06:06:27.919Z,98.81
2022-10-24T06:08:56.562Z,99.09
2022-10-24T06:11:26.560Z,98.90
2022-10-24T06:14:47.596Z,98.63
2022-10-24T06:17:16.277Z,98.78
2022-10-24T06:19:45.309Z,98.78
2022-10-24T06:22:14.468Z,99.07
2022-10-24T06:24:43.259Z,99.10
2022-10-24T06:27:15.756Z,99.79
2022-10-24T06:29:45.788Z,100.00
2022-10-24T06:32:16.025Z,99.87
2022-10-24T06:34:46.560Z,100.00
2022-10-24T06:37:17.002Z,99.89
2022-10-24T06:39:46.045Z,100.00
2022-10-24T06:42:16.770Z,100.00
2022-10-24T06:44:45.521Z,100.00
2022-10-24T06:47:14.719Z,100.00
2022-10-24T06:49:47.206Z,100.00
2022-10-24T06:52:19.045Z,100.00
2022-10-24T06:55:18.402Z,100.00
2022-10-24T06:57:48.927Z,100.00
2022-10-24T07:00:18.877Z,100.00
2022-10-24T07:02:47.986Z,100.00
2022-10-24T07:05:17.190Z,100.00
2022-10-24T07:07:46.578Z,100.00
2022-10-24T07:10:17.173Z,100.00
2022-10-24T07:12:47.668Z,100.00
2022-10-24T07:15:16.718Z,100.00
2022-10-24T07:17:46.649Z,100.00
2022-10-24T07:20:16.601Z,100.00
2022-10-24T07:22:46.770Z,100.00
2022-10-24T07:25:17.004Z,100.00
2022-10-24T07:27:47.082Z,100.00
2022-10-24T07:30:20.286Z,100.00
2022-10-24T07:32:50.002Z,100.00
2022-10-24T07:35:18.717Z,100.00
2022-10-24T07:37:47.712Z,100.00
2022-10-24T07:40:17.859Z,100.00
2022-10-24T07:42:49.571Z,100.00
2022-10-24T07:45:18.925Z,100.00
2022-10-24T07:47:48.752Z,100.00
2022-10-24T07:50:18.141Z,100.00
2022-10-24T07:52:47.424Z,100.00
2022-10-24T07:55:16.604Z,100.00
2022-10-24T07:57:46.153Z,100.00
2022-10-24T08:00:20.723Z,100.00
2022-10-24T08:05:23.263Z,100.00
2022-10-24T08:07:56.254Z,100.00
2022-10-24T08:10:34.353Z,100.00
2022-10-24T08:13:03.205Z,100.00
2022-10-24T08:15:33.312Z,100.00
2022-10-24T08:18:02.235Z,100.00
2022-10-24T08:20:31.236Z,100.00
2022-10-24T08:23:00.139Z,100.00
2022-10-24T08:25:28.892Z,100.00
2022-10-24T08:27:57.692Z,100.00
2022-10-24T08:30:26.531Z,100.00
2022-10-24T08:32:56.484Z,100.00
2022-10-24T08:35:25.889Z,100.00
2022-10-24T08:37:54.545Z,100.00
2022-10-24T08:40:23.149Z,100.00
2022-10-24T08:42:52.505Z,100.00
2022-10-24T08:45:30.211Z,100.00
2022-10-24T08:48:08.189Z,100.00
2022-10-24T08:50:38.320Z,100.00
2022-10-24T08:53:14.526Z,100.00
2022-10-24T08:55:50.617Z,100.00
2022-10-24T08:58:26.958Z,100.00
2022-10-24T09:00:59.375Z,100.00
2022-10-24T09:03:54.887Z,100.00
2022-10-24T09:06:30.078Z,100.00
2022-10-24T09:09:03.122Z,100.00
2022-10-24T09:11:47.657Z,100.00
2022-10-24T09:14:19.965Z,100.00
2022-10-24T09:16:57.802Z,100.00
2022-10-24T09:19:31.131Z,100.00
2022-10-24T09:22:02.586Z,100.00
2022-10-24T09:24:42.734Z,100.00
2022-10-24T09:27:19.064Z,100.00
2022-10-24T09:29:47.953Z,100.00
2022-10-24T09:32:21.524Z,100.00
2022-10-24T09:34:52.402Z,100.00
2022-10-24T09:37:44.322Z,100.00
2022-10-24T09:40:21.959Z,100.00
2022-10-24T09:42:59.825Z,100.00
2022-10-24T09:45:39.124Z,100.00
2022-10-24T09:48:24.571Z,100.00
2022-10-24T09:50:58.248Z,100.00
2022-10-24T09:53:31.132Z,100.00
2022-10-24T09:56:07.653Z,100.00
2022-10-24T09:58:36.520Z,100.00
2022-10-24T10:01:08.985Z,100.00
2022-10-24T10:03:37.744Z,100.00
2022-10-24T10:06:19.030Z,100.00
2022-10-24T10:08:54.619Z,100.00
2022-10-24T10:11:31.608Z,100.00
2022-10-24T10:14:04.001Z,100.00
2022-10-24T10:16:37.722Z,100.00
2022-10-24T10:19:19.416Z,100.00
2022-10-24T10:22:00.293Z,100.00
2022-10-24T10:24:39.956Z,100.00
2022-10-24T10:27:43.420Z,100.00
2022-10-24T10:30:23.082Z,100.00
2022-10-24T10:33:12.767Z,100.00
2022-10-24T10:35:52.118Z,100.00
2022-10-24T10:38:44.228Z,100.00
2022-10-24T10:41:30.149Z,100.00
2022-10-24T10:44:21.089Z,100.00
2022-10-24T10:47:03.050Z,100.00
2022-10-24T10:49:37.680Z,100.00
2022-10-24T10:52:13.542Z,100.00
2022-10-24T10:55:16.475Z,100.00
2022-10-24T10:57:55.335Z,100.00
2022-10-24T11:00:36.430Z,100.00
2022-10-24T11:03:30.753Z,100.00
2022-10-24T11:06:19.675Z,100.00
2022-10-24T11:09:29.927Z,100.00
2022-10-24T11:12:12.092Z,100.00
2022-10-24T11:14:46.795Z,100.00
2022-10-24T11:17:24.762Z,100.00
2022-10-24T11:20:08.958Z,100.00
2022-10-24T11:22:46.908Z,100.00
2022-10-24T11:25:27.307Z,100.00
2022-10-24T11:28:08.916Z,100.00
2022-10-24T11:30:52.073Z,100.00
2022-10-24T11:33:27.193Z,100.00
2022-10-24T11:36:12.466Z,100.00
2022-10-24T11:38:51.177Z,100.00
2022-10-24T11:41:41.333Z,100.00
2022-10-24T11:44:41.040Z,100.00
2022-10-24T11:47:41.110Z,100.00
2022-10-24T11:50:25.863Z,100.00
2022-10-24T11:53:01.574Z,100.00
2022-10-24T11:55:39.210Z,100.00
2022-10-24T11:58:16.795Z,100.00
2022-10-24T12:01:25.314Z,100.00
2022-10-24T12:05:02.019Z,100.00
2022-10-24T12:08:35.107Z,100.00
2022-10-24T12:11:21.523Z,100.00
2022-10-24T12:14:22.928Z,100.00
2022-10-24T12:17:36.736Z,100.00
2022-10-24T12:20:12.892Z,100.00
2022-10-24T12:22:45.587Z,100.00
2022-10-24T12:25:29.917Z,100.00
2022-10-24T12:28:02.596Z,100.00
2022-10-24T12:30:34.920Z,100.00
2022-10-24T12:33:25.928Z,100.00
2022-10-24T12:35:57.370Z,100.00
2022-10-24T12:39:09.613Z,100.00
2022-10-24T12:41:45.660Z,100.00
2022-10-24T12:44:42.491Z,100.00
2022-10-24T12:47:35.741Z,100.00
2022-10-24T12:51:01.603Z,100.00
2022-10-24T12:54:02.297Z,100.00
2022-10-24T12:56:32.474Z,100.00
2022-10-24T12:59:05.678Z,100.00
2022-10-24T13:01:37.884Z,100.00
2022-10-24T13:04:56.727Z,100.00
2022-10-24T13:07:50.904Z,100.00
2022-10-24T13:10:45.957Z,99.76
2022-10-24T13:13:39.090Z,99.24
2022-10-24T13:16:26.371Z,100.00
2022-10-24T13:19:17.130Z,99.78
2022-10-24T13:21:50.614Z,100.00
2022-10-24T13:24:35.307Z,99.82
2022-10-24T13:27:29.575Z,100.00
2022-10-24T13:30:33.916Z,99.77
2022-10-24T13:33:42.923Z,99.73
2022-10-24T13:36:20.510Z,99.73
2022-10-24T13:38:56.216Z,99.09
2022-10-24T13:41:35.761Z,99.00
2022-10-24T13:44:15.751Z,98.60
2022-10-24T13:46:54.497Z,98.49
2022-10-24T13:49:32.698Z,97.64
2022-10-24T13:52:10.424Z,97.69
2022-10-24T13:54:40.548Z,97.68
2022-10-24T13:57:29.726Z,97.69
2022-10-24T14:00:02.304Z,97.81
2022-10-24T14:02:43.946Z,97.96
2022-10-24T14:05:32.768Z,97.75
2022-10-24T14:08:04.458Z,97.29
2022-10-24T14:10:34.422Z,96.86
2022-10-24T14:13:05.418Z,95.85
2022-10-24T14:15:36.462Z,95.75
2022-10-24T14:18:15.034Z,95.50
2022-10-24T14:20:45.864Z,95.46
2022-10-24T14:23:29.902Z,94.88
2022-10-24T14:26:03.910Z,95.22
2022-10-24T14:28:40.453Z,95.41
2022-10-24T14:31:24.192Z,95.46
2022-10-24T14:33:57.788Z,95.19
2022-10-24T14:36:33.194Z,95.14
2022-10-24T14:39:07.008Z,94.43
2022-10-24T14:41:42.315Z,93.78
2022-10-24T14:44:18.424Z,93.91
2022-10-24T14:46:49.025Z,94.34
2022-10-24T14:49:33.932Z,94.12
2022-10-24T14:52:13.366Z,94.19
2022-10-24T14:54:52.077Z,93.89
2022-10-24T14:57:24.054Z,93.11
2022-10-24T14:59:57.478Z,92.81
2022-10-24T15:02:31.296Z,93.11
2022-10-24T15:05:30.223Z,92.94
2022-10-24T15:08:22.549Z,93.25
2022-10-24T15:11:05.838Z,93.30
2022-10-24T15:13:48.090Z,93.01
2022-10-24T15:16:35.406Z,92.73
2022-10-24T15:19:07.145Z,92.45
2022-10-24T15:21:41.403Z,92.06
2022-10-24T15:24:23.509Z,92.04
2022-10-24T15:26:52.879Z,92.04
2022-10-24T15:29:24.602Z,91.76
2022-10-24T15:31:54.774Z,91.82
2022-10-24T15:34:27.264Z,91.88
2022-10-24T15:36:57.849Z,91.46
2022-10-24T15:39:27.157Z,91.12
2022-10-24T15:41:56.993Z,90.70
2022-10-24T15:44:29.507Z,91.08
2022-10-24T15:46:59.795Z,90.38
2022-10-24T15:49:29.322Z,90.55
2022-10-24T15:51:59.741Z,90.40
2022-10-24T15:54:29.450Z,90.78
2022-10-24T15:57:01.521Z,90.30
2022-10-24T15:59:33.630Z,90.50
2022-10-24T16:02:04.549Z,90.52
2022-10-24T16:04:35.098Z,90.47
2022-10-24T16:07:04.062Z,90.34
2022-10-24T16:09:32.828Z,90.31
2022-10-24T16:12:01.552Z,89.98
2022-10-24T16:14:31.001Z,89.33
2022-10-24T16:17:00.410Z,89.63
2022-10-24T16:19:30.480Z,89.99
2022-10-24T16:22:01.102Z,90.44
2022-10-24T16:24:30.765Z,90.36
2022-10-24T16:26:59.523Z,90.29
2022-10-24T16:29:28.586Z,90.73
2022-10-24T16:31:57.342Z,90.44
2022-10-24T16:34:26.120Z,90.95
2022-10-24T16:36:56.770Z,91.01
2022-10-24T16:39:25.572Z,91.10
2022-10-24T16:41:56.054Z,91.08
2022-10-24T16:44:24.768Z,91.25
2022-10-24T16:46:55.049Z,91.57
2022-10-24T16:49:24.362Z,91.85
2022-10-24T16:51:53.157Z,92.15
2022-10-24T16:54:23.427Z,91.77
2022-10-24T16:56:54.157Z,92.00
2022-10-24T16:59:23.203Z,91.80
2022-10-24T17:01:52.210Z,91.74
2022-10-24T17:04:21.089Z,92.57
2022-10-24T17:06:49.789Z,92.80
2022-10-24T17:09:18.837Z,93.42
2022-10-24T17:11:49.764Z,93.09
2022-10-24T17:14:23.771Z,92.89
2022-10-24T17:16:53.037Z,92.62
2022-10-24T17:19:22.979Z,92.40
2022-10-24T17:21:57.297Z,92.03
2022-10-24T17:24:28.045Z,92.02
2022-10-24T17:26:59.345Z,92.35
2022-10-24T17:29:31.953Z,92.35
2022-10-24T17:32:03.263Z,92.12
2022-10-24T17:34:33.671Z,92.14
2022-10-24T17:37:20.016Z,92.54
2022-10-24T17:39:53.567Z,93.01
2022-10-24T17:42:35.850Z,93.32
2022-10-24T17:45:07.941Z,93.68
2022-10-24T17:47:38.432Z,93.40
2022-10-24T17:50:11.016Z,92.97
2022-10-24T17:52:42.275Z,93.54
2022-10-24T17:55:40.993Z,93.29
2022-10-24T17:58:13.652Z,93.74
2022-10-24T18:00:46.370Z,93.76
2022-10-24T18:03:16.445Z,93.06
2022-10-24T18:05:45.463Z,92.97
2022-10-24T18:08:17.753Z,93.01
2022-10-24T18:10:46.964Z,92.78
2022-10-24T18:13:19.503Z,93.15
2022-10-24T18:15:48.733Z,92.52
2022-10-24T18:18:18.719Z,92.42
2022-10-24T18:20:48.200Z,92.26
2022-10-24T18:23:17.720Z,92.67
2022-10-24T18:25:47.042Z,92.41
2022-10-24T18:28:17.969Z,92.66
2022-10-24T18:30:51.967Z,92.85
2022-10-24T18:33:23.853Z,92.78
2022-10-24T18:35:54.848Z,92.48
2022-10-24T18:38:24.994Z,92.44
2022-10-24T18:40:54.708Z,92.54
2022-10-24T18:43:47.455Z,91.91
2022-10-24T18:46:19.238Z,92.78
2022-10-24T18:48:49.134Z,92.79
2022-10-24T18:51:32.126Z,92.44
2022-10-24T18:54:07.406Z,92.16
2022-10-24T18:56:40.006Z,91.95
2022-10-24T18:59:16.010Z,92.02
2022-10-24T19:01:56.857Z,91.89
2022-10-24T19:04:27.707Z,91.65
2022-10-24T19:07:04.072Z,91.97
2022-10-24T19:09:33.095Z,91.47
2022-10-24T19:12:03.478Z,91.95
2022-10-24T19:14:34.361Z,91.91
2022-10-24T19:17:04.414Z,91.60
2022-10-24T19:20:00.619Z,92.62
2022-10-24T19:22:31.742Z,91.78
2022-10-24T19:25:00.631Z,91.82
2022-10-24T19:27:39.119Z,92.87
2022-10-24T19:30:12.133Z,92.87
2022-10-24T19:32:41.085Z,92.92
2022-10-24T19:35:10.152Z,93.53
2022-10-24T19:37:38.828Z,93.08
2022-10-24T19:40:09.789Z,93.24
2022-10-24T19:42:38.876Z,93.02
2022-10-24T19:45:10.147Z,93.24
2022-10-24T19:47:41.166Z,93.14
2022-10-24T19:50:12.718Z,93.18
2022-10-24T19:52:41.793Z,93.28
2022-10-24T19:55:10.865Z,93.27
2022-10-24T19:57:39.695Z,93.25
2022-10-24T20:00:12.128Z,93.23
2022-10-24T20:02:41.956Z,93.55
2022-10-24T20:05:11.169Z,93.70
2022-10-24T20:07:40.162Z,93.66
2022-10-24T20:10:09.851Z,93.65
2022-10-24T20:12:40.990Z,93.67
2022-10-24T20:15:13.797Z,93.81
2022-10-24T20:17:42.784Z,93.62
2022-10-24T20:20:13.699Z,94.03
2022-10-24T20:22:43.150Z,94.31
2022-10-24T20:25:11.974Z,94.70
2022-10-24T20:27:42.056Z,94.57
2022-10-24T20:30:14.154Z,94.09
2022-10-24T20:32:43.240Z,94.13
2022-10-24T20:35:12.156Z,94.37
2022-10-24T20:37:41.195Z,95.27
2022-10-24T20:40:13.073Z,95.87
2022-10-24T20:42:42.881Z,96.17
2022-10-24T20:45:13.401Z,96.06
2022-10-24T20:47:42.619Z,96.20
2022-10-24T20:50:12.344Z,96.25
2022-10-24T20:52:41.293Z,96.67
2022-10-24T20:55:19.753Z,97.29
2022-10-24T20:57:59.445Z,97.43
2022-10-24T21:00:29.939Z,98.27
2022-10-24T21:02:59.110Z,98.08
2022-10-24T21:05:29.243Z,96.35
2022-10-24T21:07:58.079Z,97.44
2022-10-24T21:10:28.173Z,97.58
2022-10-24T21:12:57.109Z,97.26
2022-10-24T21:15:26.112Z,96.91
2022-10-24T21:17:56.631Z,96.86
2022-10-24T21:20:25.665Z,96.98
2022-10-24T21:22:58.713Z,96.61
2022-10-24T21:25:27.725Z,96.48
2022-10-24T21:27:57.257Z,96.44
2022-10-24T21:30:26.598Z,96.24
2022-10-24T21:32:56.855Z,95.79
2022-10-24T21:35:26.298Z,95.76
2022-10-24T21:37:56.101Z,95.55
2022-10-24T21:40:24.974Z,95.23
2022-10-24T21:42:54.356Z,95.26
2022-10-24T21:45:23.072Z,95.45
2022-10-24T21:47:51.765Z,95.27
2022-10-24T21:50:22.624Z,95.02
2022-10-24T21:52:51.474Z,95.45
2022-10-24T21:55:20.157Z,95.52
2022-10-24T21:57:49.451Z,95.48
2022-10-24T22:00:18.457Z,95.46
2022-10-24T22:02:47.853Z,95.92
2022-10-24T22:05:17.417Z,95.35
2022-10-24T22:07:49.704Z,95.77
2022-10-24T22:10:18.695Z,95.92
2022-10-24T22:12:47.355Z,95.88
2022-10-24T22:15:16.124Z,95.75
2022-10-24T22:17:44.964Z,95.55
2022-10-24T22:20:13.889Z,95.72
2022-10-24T22:22:42.653Z,95.22
2022-10-24T22:25:12.997Z,95.46
2022-10-24T22:27:43.325Z,95.04
2022-10-24T22:30:13.390Z,95.76
2022-10-24T22:32:42.600Z,95.25
2022-10-24T22:35:13.127Z,95.30
2022-10-24T22:37:42.501Z,95.67
2022-10-24T22:40:24.895Z,95.52
2022-10-24T22:42:54.579Z,94.81
2022-10-24T22:45:25.188Z,94.98
2022-10-24T22:48:21.353Z,95.38
2022-10-24T22:50:53.444Z,94.72
2022-10-24T22:53:25.249Z,94.68
2022-10-24T22:56:12.964Z,95.34
2022-10-24T22:58:43.995Z,94.91
2022-10-24T23:01:28.888Z,96.11
2022-10-24T23:04:25.033Z,95.90
2022-10-24T23:06:59.432Z,95.88
2022-10-24T23:09:28.168Z,95.80
2022-10-24T23:11:59.303Z,95.78
2022-10-24T23:14:28.914Z,96.60
2022-10-24T23:17:00.992Z,97.19
2022-10-24T23:19:32.878Z,97.89
2022-10-24T23:23:09.443Z,98.21
2022-10-24T23:25:57.126Z,97.57
2022-10-24T23:28:41.319Z,97.43
2022-10-24T23:31:11.070Z,98.34
2022-10-24T23:33:40.582Z,98.94
2022-10-24T23:36:23.920Z,98.70
2022-10-24T23:38:56.026Z,98.50
2022-10-24T23:41:25.515Z,98.28
2022-10-24T23:43:56.797Z,98.50
2022-10-24T23:46:34.260Z,98.16
2022-10-24T23:49:26.077Z,97.54
2022-10-24T23:52:05.327Z,98.61
2022-10-24T23:54:35.240Z,98.28
2022-10-24T23:57:14.708Z,97.99
2022-10-24T23:59:45.198Z,98.03
